createdAt,value
2023-03-21T00:01:54.673Z,3.25
2023-03-21T00:04:28.429Z,3.35
2023-03-21T00:06:58.948Z,3.20
2023-03-21T00:09:27.230Z,3.33
2023-03-21T00:11:55.152Z,3.50
2023-03-21T00:14:23.812Z,3.20
2023-03-21T00:16:52.999Z,2.90
2023-03-21T00:19:21.980Z,4.15
2023-03-21T00:22:06.590Z,3.30
2023-03-21T00:24:36.075Z,3.03
2023-03-21T00:27:29.857Z,3.30
2023-03-21T00:32:21.787Z,3.75
2023-03-21T00:35:11.907Z,3.63
2023-03-21T00:37:40.857Z,3.85
2023-03-21T00:40:25.416Z,3.50
2023-03-21T00:42:55.610Z,4.28
2023-03-21T00:45:26.052Z,3.30
2023-03-21T00:47:56.613Z,3.10
2023-03-21T00:50:24.805Z,3.67
2023-03-21T00:52:52.743Z,4.10
2023-03-21T00:55:23.387Z,5.32
2023-03-21T00:58:01.315Z,5.10
2023-03-21T01:00:31.051Z,4.25
2023-03-21T01:03:17.448Z,4.05
2023-03-21T01:06:08.153Z,4.18
2023-03-21T01:08:51.060Z,3.10
2023-03-21T01:11:24.131Z,2.53
2023-03-21T01:13:59.864Z,2.58
2023-03-21T01:16:36.738Z,2.70
2023-03-21T01:19:09.267Z,3.03
2023-03-21T01:21:40.269Z,2.60
2023-03-21T01:24:08.565Z,2.58
2023-03-21T01:26:37.857Z,2.30
2023-03-21T01:29:06.094Z,2.75
2023-03-21T01:31:34.168Z,2.60
2023-03-21T01:34:02.246Z,3.00
2023-03-21T01:36:30.614Z,2.63
2023-03-21T01:39:03.970Z,2.42
2023-03-21T01:41:44.008Z,2.15
2023-03-21T01:44:29.216Z,2.30
2023-03-21T01:47:10.973Z,2.40
2023-03-21T01:50:02.336Z,2.20
2023-03-21T01:52:39.767Z,1.98
2023-03-21T01:55:18.766Z,2.30
2023-03-21T01:58:05.960Z,1.95
2023-03-21T02:00:46.489Z,1.67
2023-03-21T02:03:36.149Z,1.85
2023-03-21T02:06:58.025Z,2.13
2023-03-21T02:09:47.038Z,2.47
2023-03-21T02:12:19.029Z,1.92
2023-03-21T02:14:50.275Z,1.85
2023-03-21T02:18:06.833Z,1.98
2023-03-21T02:21:01.513Z,1.60
2023-03-21T02:24:13.077Z,2.45
2023-03-21T02:27:04.295Z,1.73
2023-03-21T02:30:23.094Z,2.40
2023-03-21T02:33:16.892Z,1.90
2023-03-21T02:36:22.497Z,2.05
2023-03-21T02:39:27.008Z,1.95
2023-03-21T02:42:05.130Z,2.00
2023-03-21T02:44:47.203Z,2.20
2023-03-21T02:47:31.717Z,2.70
2023-03-21T02:50:10.369Z,2.53
2023-03-21T02:52:39.957Z,2.70
2023-03-21T02:55:25.922Z,2.20
2023-03-21T02:58:13.192Z,2.70
2023-03-21T03:00:49.000Z,3.53
2023-03-21T03:03:34.658Z,2.90
2023-03-21T03:06:29.101Z,2.83
2023-03-21T03:09:02.904Z,2.30
2023-03-21T03:11:38.062Z,2.72
2023-03-21T03:14:40.175Z,2.50
2023-03-21T03:17:18.295Z,2.90
2023-03-21T03:20:24.969Z,2.45
2023-03-21T03:23:33.545Z,2.20
2023-03-21T03:26:18.622Z,2.47
2023-03-21T03:28:51.097Z,2.40
2023-03-21T03:31:27.166Z,2.20
2023-03-21T03:34:04.887Z,2.60
2023-03-21T03:36:39.288Z,2.40
2023-03-21T03:39:14.809Z,2.45
2023-03-21T03:42:10.242Z,2.67
2023-03-21T03:44:48.130Z,2.38
2023-03-21T03:47:55.910Z,3.25
2023-03-21T03:50:41.719Z,2.85
2023-03-21T03:53:19.021Z,3.05
2023-03-21T03:55:49.996Z,2.97
2023-03-21T03:58:24.776Z,2.90
2023-03-21T04:00:57.619Z,3.30
2023-03-21T04:03:25.659Z,2.92
2023-03-21T04:05:54.904Z,2.95
2023-03-21T04:08:23.452Z,3.00
2023-03-21T04:10:54.978Z,3.28
2023-03-21T04:13:24.157Z,2.85
2023-03-21T04:16:05.907Z,2.60
2023-03-21T04:18:33.742Z,2.90
2023-03-21T04:21:02.448Z,3.40
2023-03-21T04:23:32.643Z,3.25
2023-03-21T04:26:00.554Z,3.40
2023-03-21T04:28:37.226Z,2.85
2023-03-21T04:31:25.472Z,3.45
2023-03-21T04:34:04.427Z,3.55
2023-03-21T04:36:39.398Z,3.13
2023-03-21T04:39:13.343Z,3.72
2023-03-21T04:41:46.769Z,3.88
2023-03-21T04:44:16.612Z,3.60
2023-03-21T04:46:45.540Z,4.10
2023-03-21T04:49:14.094Z,4.85
2023-03-21T04:51:45.510Z,4.40
2023-03-21T04:54:18.099Z,4.80
2023-03-21T04:56:46.038Z,4.75
2023-03-21T04:59:16.871Z,4.80
2023-03-21T05:01:45.900Z,4.75
2023-03-21T05:04:14.825Z,4.60
2023-03-21T05:06:44.031Z,5.03
2023-03-21T05:09:12.774Z,4.82
2023-03-21T05:11:41.443Z,4.80
2023-03-21T05:14:14.734Z,4.65
2023-03-21T05:16:45.365Z,4.25
2023-03-21T05:19:16.110Z,4.15
2023-03-21T05:21:45.352Z,4.72
2023-03-21T05:24:26.367Z,4.32
2023-03-21T05:26:56.557Z,4.15
2023-03-21T05:29:33.266Z,4.57
2023-03-21T05:32:07.115Z,5.13
2023-03-21T05:34:35.120Z,5.78
2023-03-21T05:37:03.166Z,6.00
2023-03-21T05:39:47.179Z,5.70
2023-03-21T05:42:23.340Z,5.88
2023-03-21T05:44:51.461Z,5.30
2023-03-21T05:47:24.291Z,5.18
2023-03-21T05:49:54.243Z,6.15
2023-03-21T05:52:23.581Z,5.22
2023-03-21T05:54:51.446Z,5.60
2023-03-21T05:57:23.351Z,5.53
2023-03-21T05:59:59.851Z,5.47
2023-03-21T06:02:29.050Z,5.85
2023-03-21T06:05:00.992Z,5.47
2023-03-21T06:07:29.052Z,5.70
2023-03-21T06:09:57.056Z,5.20
2023-03-21T06:12:25.108Z,5.30
2023-03-21T06:15:10.741Z,6.50
2023-03-21T06:18:01.317Z,6.22
2023-03-21T06:20:29.449Z,6.30
2023-03-21T06:23:06.083Z,7.53
2023-03-21T06:25:35.488Z,7.78
2023-03-21T06:28:03.970Z,8.10
2023-03-21T06:30:33.030Z,8.70
2023-03-21T06:33:21.452Z,7.75
2023-03-21T06:35:57.671Z,7.93
2023-03-21T06:38:26.692Z,8.07
2023-03-21T06:40:54.724Z,7.57
2023-03-21T06:43:26.168Z,7.72
2023-03-21T06:45:55.155Z,7.78
2023-03-21T06:48:23.377Z,7.70
2023-03-21T06:50:53.270Z,6.97
2023-03-21T06:53:27.890Z,6.53
2023-03-21T06:56:17.272Z,7.53
2023-03-21T06:58:46.827Z,7.20
2023-03-21T07:01:36.090Z,7.45
2023-03-21T07:04:07.554Z,9.15
2023-03-21T07:06:37.384Z,8.40
2023-03-21T07:09:06.124Z,9.20
2023-03-21T07:11:36.765Z,8.90
2023-03-21T07:14:05.745Z,9.25
2023-03-21T07:16:33.855Z,8.10
2023-03-21T07:19:01.779Z,8.48
2023-03-21T07:21:29.638Z,8.02
2023-03-21T07:23:57.436Z,8.30
2023-03-21T07:26:25.232Z,7.93
2023-03-21T07:28:53.201Z,7.03
2023-03-21T07:31:22.179Z,6.93
2023-03-21T07:33:50.149Z,7.13
2023-03-21T07:36:18.130Z,6.47
2023-03-21T07:38:46.570Z,7.65
2023-03-21T07:43:44.299Z,6.50
2023-03-21T07:46:12.213Z,7.20
2023-03-21T07:48:39.999Z,6.28
2023-03-21T07:51:08.239Z,5.55
2023-03-21T07:53:36.739Z,5.95
2023-03-21T07:56:04.844Z,6.35
2023-03-21T07:58:34.924Z,5.25
2023-03-21T08:01:02.788Z,4.95
2023-03-21T08:03:32.948Z,5.85
2023-03-21T08:06:04.051Z,5.53
2023-03-21T08:08:31.787Z,6.40
2023-03-21T08:11:00.130Z,5.88
2023-03-21T08:13:28.102Z,6.00
2023-03-21T08:15:56.184Z,5.93
2023-03-21T08:18:24.304Z,5.32
2023-03-21T08:20:57.420Z,5.28
2023-03-21T08:23:26.156Z,5.13
2023-03-21T08:25:57.247Z,5.93
2023-03-21T08:28:25.277Z,6.03
2023-03-21T08:30:53.076Z,5.72
2023-03-21T08:33:22.002Z,4.70
2023-03-21T08:35:49.815Z,5.55
2023-03-21T08:38:17.576Z,5.70
2023-03-21T08:40:45.795Z,6.03
2023-03-21T08:43:14.907Z,5.50
2023-03-21T08:45:42.993Z,5.95
2023-03-21T08:48:11.102Z,4.93
2023-03-21T08:50:40.011Z,5.75
2023-03-21T08:53:07.790Z,5.25
2023-03-21T08:55:35.903Z,6.43
2023-03-21T08:58:04.483Z,5.55
2023-03-21T09:00:32.555Z,5.50
2023-03-21T09:03:00.453Z,5.60
2023-03-21T09:05:28.687Z,5.90
2023-03-21T09:07:56.861Z,5.53
2023-03-21T09:10:24.920Z,5.07
2023-03-21T09:12:55.084Z,5.13
2023-03-21T09:15:25.327Z,4.25
2023-03-21T09:17:55.394Z,3.80
2023-03-21T09:20:38.514Z,4.20
2023-03-21T09:23:06.598Z,3.95
2023-03-21T09:25:35.189Z,3.95
2023-03-21T09:28:06.303Z,3.80
2023-03-21T09:30:37.375Z,4.25
2023-03-21T09:33:13.390Z,4.97
2023-03-21T09:35:41.798Z,6.40
2023-03-21T09:38:10.115Z,7.20
2023-03-21T09:40:53.284Z,7.38
2023-03-21T09:43:49.878Z,6.85
2023-03-21T09:46:35.884Z,5.95
2023-03-21T09:49:11.504Z,5.20
2023-03-21T09:51:52.968Z,4.93
2023-03-21T09:54:33.734Z,4.78
2023-03-21T09:57:12.128Z,4.82
2023-03-21T09:59:43.047Z,5.00
2023-03-21T10:02:20.601Z,6.55
2023-03-21T10:04:48.812Z,5.88
2023-03-21T10:07:19.380Z,6.32
2023-03-21T10:09:49.136Z,7.00
2023-03-21T10:12:22.165Z,6.78
2023-03-21T10:14:55.915Z,7.45
2023-03-21T10:17:42.990Z,7.07
2023-03-21T10:20:12.079Z,6.85
2023-03-21T10:22:40.550Z,6.40
2023-03-21T10:25:12.477Z,6.90
2023-03-21T10:27:40.811Z,7.03
2023-03-21T10:30:16.095Z,6.43
2023-03-21T10:32:44.145Z,5.38
2023-03-21T10:35:14.677Z,5.55
2023-03-21T10:37:42.549Z,6.30
2023-03-21T10:40:17.017Z,5.65
2023-03-21T10:42:45.023Z,5.15
2023-03-21T10:45:20.227Z,4.55
2023-03-21T10:47:50.335Z,4.68
2023-03-21T10:50:25.729Z,4.78
2023-03-21T10:53:01.153Z,4.28
2023-03-21T10:55:32.583Z,4.50
2023-03-21T10:58:08.847Z,4.55
2023-03-21T11:00:45.420Z,3.90
2023-03-21T11:03:29.591Z,4.20
2023-03-21T11:06:19.504Z,3.95
2023-03-21T11:09:09.965Z,4.05
2023-03-21T11:11:41.182Z,4.00
2023-03-21T11:14:25.956Z,3.97
2023-03-21T11:16:53.918Z,4.07
2023-03-21T11:19:33.617Z,4.53
2023-03-21T11:22:07.563Z,4.80
2023-03-21T11:24:36.413Z,4.78
2023-03-21T11:27:08.448Z,4.72
2023-03-21T11:29:40.628Z,3.70
2023-03-21T11:32:21.181Z,4.05
2023-03-21T11:34:58.557Z,4.28
2023-03-21T11:37:29.267Z,3.60
2023-03-21T11:40:08.113Z,4.75
2023-03-21T11:42:49.962Z,4.40
2023-03-21T11:45:27.703Z,4.20
2023-03-21T11:47:57.786Z,4.10
2023-03-21T11:50:28.769Z,4.88
2023-03-21T11:53:35.761Z,4.40
2023-03-21T11:56:34.621Z,3.60
2023-03-21T11:59:26.408Z,3.97
2023-03-21T12:02:13.044Z,3.60
2023-03-21T12:04:46.729Z,3.90
2023-03-21T12:07:42.180Z,4.15
2023-03-21T12:10:34.563Z,4.45
2023-03-21T12:13:21.180Z,4.47
2023-03-21T12:15:54.973Z,4.53
2023-03-21T12:18:46.239Z,5.15
2023-03-21T12:21:42.128Z,4.88
2023-03-21T12:24:17.102Z,4.65
2023-03-21T12:27:06.616Z,4.32
2023-03-21T12:29:53.050Z,5.35
2023-03-21T12:32:52.351Z,4.93
2023-03-21T12:35:26.375Z,4.97
2023-03-21T12:38:10.613Z,4.60
2023-03-21T12:41:06.982Z,4.72
2023-03-21T12:43:50.069Z,5.05
2023-03-21T12:46:47.827Z,4.53
2023-03-21T12:49:38.259Z,4.22
2023-03-21T12:52:22.792Z,4.68
2023-03-21T12:54:53.115Z,4.90
2023-03-21T12:57:33.110Z,4.43
2023-03-21T13:00:23.056Z,5.20
2023-03-21T13:02:58.152Z,6.32
2023-03-21T13:05:36.643Z,5.57
2023-03-21T13:08:21.418Z,5.93
2023-03-21T13:10:49.637Z,5.05
2023-03-21T13:13:36.501Z,5.25
2023-03-21T13:16:07.540Z,5.25
2023-03-21T13:18:49.390Z,4.32
2023-03-21T13:21:46.987Z,4.43
2023-03-21T13:24:23.642Z,5.00
2023-03-21T13:27:26.995Z,4.30
2023-03-21T13:30:07.274Z,4.63
2023-03-21T13:32:39.550Z,5.03
2023-03-21T13:35:32.964Z,4.53
2023-03-21T13:38:16.628Z,5.05
2023-03-21T13:40:51.269Z,5.10
2023-03-21T13:43:54.554Z,4.00
2023-03-21T13:46:25.609Z,4.63
2023-03-21T13:49:00.128Z,4.57
2023-03-21T13:51:37.466Z,4.07
2023-03-21T13:56:55.514Z,4.20
2023-03-21T13:59:44.766Z,4.30
2023-03-21T14:02:13.160Z,8.43
2023-03-21T14:05:03.730Z,8.95
2023-03-21T14:07:42.737Z,11.77
2023-03-21T14:10:30.776Z,9.02
2023-03-21T14:13:00.043Z,7.38
2023-03-21T14:15:41.008Z,6.25
2023-03-21T14:18:28.293Z,5.00
2023-03-21T14:21:05.082Z,5.60
2023-03-21T14:23:33.049Z,5.65
2023-03-21T14:26:00.969Z,5.05
2023-03-21T14:28:33.323Z,4.20
2023-03-21T14:31:01.922Z,4.00
2023-03-21T14:33:32.818Z,4.03
2023-03-21T14:36:09.091Z,4.38
2023-03-21T14:38:39.237Z,4.07
2023-03-21T14:41:23.165Z,5.18
2023-03-21T14:44:58.660Z,6.68
2023-03-21T14:47:29.560Z,7.43
2023-03-21T14:49:58.518Z,6.35
2023-03-21T14:52:29.364Z,5.63
2023-03-21T14:54:58.074Z,5.85
2023-03-21T14:57:32.004Z,5.65
2023-03-21T15:00:10.956Z,5.93
2023-03-21T15:02:41.933Z,4.55
2023-03-21T15:05:12.049Z,4.20
2023-03-21T15:07:40.002Z,3.60
2023-03-21T15:10:18.112Z,2.70
2023-03-21T15:12:55.375Z,3.33
2023-03-21T15:15:27.419Z,2.38
2023-03-21T15:18:00.883Z,2.28
2023-03-21T15:20:34.147Z,2.70
2023-03-21T15:23:07.401Z,1.90
2023-03-21T15:25:37.256Z,2.47
2023-03-21T15:28:06.648Z,2.13
2023-03-21T15:30:35.140Z,2.25
2023-03-21T15:33:10.921Z,2.55
2023-03-21T15:35:42.573Z,2.80
2023-03-21T15:38:26.672Z,3.10
2023-03-21T15:41:15.960Z,2.22
2023-03-21T15:43:45.633Z,2.20
2023-03-21T15:46:16.339Z,2.35
2023-03-21T15:48:44.785Z,2.08
2023-03-21T15:51:24.437Z,1.92
2023-03-21T15:53:56.857Z,2.22
2023-03-21T15:56:25.271Z,1.83
2023-03-21T15:58:53.566Z,1.90
2023-03-21T16:01:22.815Z,1.80
2023-03-21T16:04:10.224Z,2.03
2023-03-21T16:06:40.196Z,1.73
2023-03-21T16:09:09.311Z,1.92
2023-03-21T16:11:43.463Z,1.50
2023-03-21T16:14:13.724Z,1.88
2023-03-21T16:16:45.843Z,2.15
2023-03-21T16:19:14.003Z,2.10
2023-03-21T16:21:42.439Z,1.90
2023-03-21T16:24:11.781Z,2.10
2023-03-21T16:26:46.356Z,2.30
2023-03-21T16:29:16.086Z,1.90
2023-03-21T16:31:44.379Z,1.85
2023-03-21T16:34:12.863Z,1.88
2023-03-21T16:36:43.465Z,2.10
2023-03-21T16:39:30.114Z,2.20
2023-03-21T16:41:58.325Z,1.88
2023-03-21T16:44:26.510Z,2.15
2023-03-21T16:46:54.765Z,2.10
2023-03-21T16:49:27.884Z,1.60
2023-03-21T16:51:57.440Z,1.73
2023-03-21T16:54:26.110Z,1.70
2023-03-21T16:56:55.646Z,2.80
2023-03-21T16:59:23.685Z,2.60
2023-03-21T17:01:51.878Z,1.85
2023-03-21T17:04:19.950Z,1.80
2023-03-21T17:06:51.377Z,1.70
2023-03-21T17:09:23.542Z,2.05
2023-03-21T17:11:51.535Z,1.80
2023-03-21T17:14:21.779Z,1.80
2023-03-21T17:16:49.641Z,2.45
2023-03-21T17:19:20.616Z,3.03
2023-03-21T17:21:48.271Z,5.22
2023-03-21T17:24:16.951Z,8.13
2023-03-21T17:26:45.866Z,10.85
2023-03-21T17:29:14.463Z,8.95
2023-03-21T17:31:43.984Z,6.68
2023-03-21T17:34:12.792Z,5.18
2023-03-21T17:36:43.120Z,4.60
2023-03-21T17:39:20.061Z,4.22
2023-03-21T17:41:47.907Z,3.40
2023-03-21T17:44:16.148Z,3.00
2023-03-21T17:46:45.995Z,3.20
2023-03-21T17:49:23.233Z,3.00
2023-03-21T17:51:53.693Z,3.05
2023-03-21T17:54:37.910Z,2.60
2023-03-21T17:57:10.807Z,2.60
2023-03-21T17:59:44.854Z,2.70
2023-03-21T18:02:12.920Z,3.15
2023-03-21T18:04:43.412Z,3.50
2023-03-21T18:08:01.928Z,3.35
2023-03-21T18:10:17.390Z,3.25
2023-03-21T18:12:47.536Z,3.75
2023-03-21T18:15:19.410Z,2.90
2023-03-21T18:18:10.879Z,3.50
2023-03-21T18:20:52.020Z,3.17
2023-03-21T18:23:22.662Z,3.53
2023-03-21T18:25:55.595Z,2.95
2023-03-21T18:28:24.665Z,2.90
2023-03-21T18:31:14.249Z,2.80
2023-03-21T18:33:41.778Z,2.42
2023-03-21T18:36:10.999Z,2.00
2023-03-21T18:38:39.424Z,4.00
2023-03-21T18:44:15.317Z,5.20
2023-03-21T18:46:53.095Z,6.65
2023-03-21T18:50:02.183Z,4.53
2023-03-21T18:52:09.518Z,3.78
2023-03-21T18:54:38.170Z,4.55
2023-03-21T18:57:35.277Z,4.50
2023-03-21T18:59:55.023Z,4.88
2023-03-21T19:02:24.300Z,4.47
2023-03-21T19:04:52.276Z,4.18
2023-03-21T19:07:20.136Z,5.15
2023-03-21T19:10:10.638Z,4.35
2023-03-21T19:12:36.102Z,3.05
2023-03-21T19:15:06.527Z,3.30
2023-03-21T19:20:28.065Z,3.33
2023-03-21T19:22:57.268Z,3.65
2023-03-21T19:25:26.105Z,3.60
2023-03-21T19:27:54.002Z,3.25
2023-03-21T19:30:22.112Z,3.58
2023-03-21T19:32:50.042Z,4.35
2023-03-21T19:35:25.366Z,4.32
2023-03-21T19:37:53.261Z,3.45
2023-03-21T19:40:21.585Z,3.92
2023-03-21T19:42:51.604Z,3.63
2023-03-21T19:45:20.142Z,3.10
2023-03-21T19:47:48.198Z,3.45
2023-03-21T19:50:47.353Z,3.30
2023-03-21T19:53:04.140Z,3.25
2023-03-21T19:55:32.158Z,3.72
2023-03-21T19:58:00.140Z,4.00
2023-03-21T20:00:28.233Z,3.92
2023-03-21T20:02:56.600Z,3.67
2023-03-21T20:05:25.815Z,4.07
2023-03-21T20:07:57.253Z,3.75
2023-03-21T20:10:28.526Z,4.10
2023-03-21T20:12:56.998Z,6.97
2023-03-21T20:15:29.753Z,7.88
2023-03-21T20:17:58.836Z,13.15
2023-03-21T20:20:29.291Z,14.18
2023-03-21T20:23:07.025Z,11.05
2023-03-21T20:25:40.031Z,12.05
2023-03-21T20:28:22.575Z,13.60
2023-03-21T20:30:57.216Z,13.30
2023-03-21T20:33:25.510Z,11.95
2023-03-21T20:38:52.325Z,7.60
2023-03-21T20:41:20.972Z,6.28
2023-03-21T20:46:37.854Z,5.10
2023-03-21T20:49:09.192Z,4.88
2023-03-21T20:54:27.796Z,4.50
2023-03-21T20:56:56.897Z,3.92
2023-03-21T20:59:27.561Z,4.68
2023-03-21T21:01:58.791Z,4.47
2023-03-21T21:05:08.068Z,6.63
2023-03-21T21:07:21.212Z,8.32
2023-03-21T21:09:50.285Z,8.05
2023-03-21T21:12:19.659Z,7.20
2023-03-21T21:14:48.324Z,6.70
2023-03-21T21:17:34.003Z,6.25
2023-03-21T21:20:20.573Z,7.20
2023-03-21T21:23:00.021Z,6.75
2023-03-21T21:25:32.024Z,6.25
2023-03-21T21:28:02.197Z,5.30
2023-03-21T21:30:31.855Z,5.38
2023-03-21T21:33:01.538Z,5.40
2023-03-21T21:35:29.668Z,6.20
2023-03-21T21:37:57.718Z,5.63
2023-03-21T21:40:32.526Z,5.35
2023-03-21T21:43:03.861Z,5.80
2023-03-21T21:45:32.508Z,6.65
2023-03-21T21:48:01.078Z,10.10
2023-03-21T21:50:30.524Z,10.75
2023-03-21T21:53:03.725Z,11.02
2023-03-21T21:55:33.312Z,11.10
2023-03-21T21:58:03.264Z,9.23
2023-03-21T22:00:34.021Z,9.15
2023-03-21T22:03:02.591Z,7.55
2023-03-21T22:05:30.715Z,6.65
2023-03-21T22:07:58.664Z,6.60
2023-03-21T22:10:27.724Z,6.45
2023-03-21T22:12:57.230Z,6.53
2023-03-21T22:15:26.206Z,7.28
2023-03-21T22:17:53.998Z,7.20
2023-03-21T22:20:23.148Z,7.00
2023-03-21T22:22:51.494Z,7.25
2023-03-21T22:25:19.721Z,6.63
2023-03-21T22:27:47.737Z,7.28
2023-03-21T22:30:17.557Z,7.88
2023-03-21T22:32:53.899Z,7.15
2023-03-21T22:35:31.438Z,6.93
2023-03-21T22:37:59.624Z,7.28
2023-03-21T22:40:27.575Z,9.18
2023-03-21T22:42:55.609Z,7.80
2023-03-21T22:45:23.582Z,8.15
2023-03-21T22:47:51.490Z,8.38
2023-03-21T22:50:23.386Z,7.90
2023-03-21T22:52:51.350Z,7.28
2023-03-21T22:55:19.515Z,8.02
2023-03-21T22:57:47.635Z,7.40
2023-03-21T23:00:16.380Z,6.57
2023-03-21T23:02:44.310Z,6.93
2023-03-21T23:05:12.460Z,6.85
2023-03-21T23:07:41.410Z,6.95
2023-03-21T23:10:12.227Z,7.28
2023-03-21T23:12:40.474Z,6.45
2023-03-21T23:15:09.461Z,7.63
2023-03-21T23:17:38.121Z,8.13
2023-03-21T23:20:08.791Z,7.65
2023-03-21T23:22:37.437Z,8.05
2023-03-21T23:25:06.804Z,8.90
2023-03-21T23:27:35.787Z,7.47
2023-03-21T23:30:07.992Z,7.43
2023-03-21T23:32:36.319Z,6.82
2023-03-21T23:35:04.563Z,7.15
2023-03-21T23:37:34.267Z,6.22
2023-03-21T23:40:02.620Z,6.43
2023-03-21T23:42:30.865Z,6.82
2023-03-21T23:44:59.133Z,6.85
2023-03-21T23:47:27.030Z,7.30
2023-03-21T23:49:55.182Z,6.90
2023-03-21T23:52:23.063Z,6.63
2023-03-21T23:54:50.817Z,7.13
2023-03-21T23:57:19.041Z,6.68
2023-03-21T23:59:49.737Z,6.82
